sensor_id;sensor_type;location;lat;lon;timestamp;P1;durP1;ratioP1;P2;durP2;ratioP2
45764;SDS011;31474;45.332;10.230;2023-03-23T00:00:44;50.90;;;28.33;;
45764;SDS011;31474;45.332;10.230;2023-03-23T00:03:09;42.33;;;26.95;;
45764;SDS011;31474;45.332;10.230;2023-03-23T00:05:35;46.35;;;28.77;;
45764;SDS011;31474;45.332;10.230;2023-03-23T04:23:12;42.22;;;25.73;;
45764;SDS011;31474;45.332;10.230;2023-03-23T04:25:38;37.63;;;23.85;;
45764;SDS011;31474;45.332;10.230;2023-03-23T04:28:06;39.72;;;25.25;;
45764;SDS011;31474;45.332;10.230;2023-03-23T04:30:35;44.13;;;23.23;;
45764;SDS011;31474;45.332;10.230;2023-03-23T04:33:01;39.72;;;24.15;;
45764;SDS011;31474;45.332;10.230;2023-03-23T04:35:27;40.15;;;24.40;;
45764;SDS011;31474;45.332;10.230;2023-03-23T04:37:54;41.72;;;25.02;;
45764;SDS011;31474;45.332;10.230;2023-03-23T04:40:20;43.85;;;24.60;;
45764;SDS011;31474;45.332;10.230;2023-03-23T04:42:47;38.35;;;23.13;;
45764;SDS011;31474;45.332;10.230;2023-03-23T04:45:15;38.45;;;23.60;;
45764;SDS011;31474;45.332;10.230;2023-03-23T04:47:46;39.45;;;23.58;;
45764;SDS011;31474;45.332;10.230;2023-03-23T04:50:18;44.88;;;23.13;;
45764;SDS011;31474;45.332;10.230;2023-03-23T04:52:49;42.58;;;23.02;;
45764;SDS011;31474;45.332;10.230;2023-03-23T04:55:16;41.67;;;22.23;;
45764;SDS011;31474;45.332;10.230;2023-03-23T04:57:43;39.92;;;23.77;;
45764;SDS011;31474;45.332;10.230;2023-03-23T05:00:09;41.55;;;23.77;;
45764;SDS011;31474;45.332;10.230;2023-03-23T05:02:41;38.85;;;24.15;;
45764;SDS011;31474;45.332;10.230;2023-03-23T05:05:12;36.78;;;22.92;;
45764;SDS011;31474;45.332;10.230;2023-03-23T05:07:39;36.88;;;22.67;;
45764;SDS011;31474;45.332;10.230;2023-03-23T05:10:06;36.58;;;23.23;;
45764;SDS011;31474;45.332;10.230;2023-03-23T05:12:33;42.83;;;24.80;;
45764;SDS011;31474;45.332;10.230;2023-03-23T05:14:59;43.90;;;25.92;;
45764;SDS011;31474;45.332;10.230;2023-03-23T05:17:25;43.15;;;25.73;;
45764;SDS011;31474;45.332;10.230;2023-03-23T05:19:51;48.67;;;26.20;;
45764;SDS011;31474;45.332;10.230;2023-03-23T05:22:17;53.88;;;26.20;;
45764;SDS011;31474;45.332;10.230;2023-03-23T05:24:45;47.00;;;25.48;;
45764;SDS011;31474;45.332;10.230;2023-03-23T05:27:12;42.13;;;25.35;;
45764;SDS011;31474;45.332;10.230;2023-03-23T05:29:40;46.38;;;28.23;;
45764;SDS011;31474;45.332;10.230;2023-03-23T05:32:08;47.58;;;26.38;;
45764;SDS011;31474;45.332;10.230;2023-03-23T05:34:34;43.80;;;25.25;;
45764;SDS011;31474;45.332;10.230;2023-03-23T05:37:01;43.85;;;27.25;;
45764;SDS011;31474;45.332;10.230;2023-03-23T05:39:28;46.22;;;24.75;;
45764;SDS011;31474;45.332;10.230;2023-03-23T05:41:55;38.40;;;23.90;;
45764;SDS011;31474;45.332;10.230;2023-03-23T05:44:20;46.03;;;26.02;;
45764;SDS011;31474;45.332;10.230;2023-03-23T05:46:47;40.28;;;24.42;;
45764;SDS011;31474;45.332;10.230;2023-03-23T05:49:13;42.35;;;25.10;;
45764;SDS011;31474;45.332;10.230;2023-03-23T05:51:41;40.50;;;25.48;;
45764;SDS011;31474;45.332;10.230;2023-03-23T05:54:07;41.10;;;26.40;;
45764;SDS011;31474;45.332;10.230;2023-03-23T05:56:35;42.85;;;26.17;;
45764;SDS011;31474;45.332;10.230;2023-03-23T05:59:00;44.33;;;25.13;;
45764;SDS011;31474;45.332;10.230;2023-03-23T06:01:27;50.00;;;25.42;;
45764;SDS011;31474;45.332;10.230;2023-03-23T06:03:53;46.25;;;26.45;;
45764;SDS011;31474;45.332;10.230;2023-03-23T06:06:23;48.35;;;27.23;;
45764;SDS011;31474;45.332;10.230;2023-03-23T06:08:49;44.58;;;26.77;;
45764;SDS011;31474;45.332;10.230;2023-03-23T06:11:15;55.13;;;27.40;;
45764;SDS011;31474;45.332;10.230;2023-03-23T06:13:41;45.55;;;26.88;;
45764;SDS011;31474;45.332;10.230;2023-03-23T06:16:07;50.20;;;27.80;;
45764;SDS011;31474;45.332;10.230;2023-03-23T06:18:33;48.55;;;27.52;;
45764;SDS011;31474;45.332;10.230;2023-03-23T06:21:01;52.50;;;29.17;;
45764;SDS011;31474;45.332;10.230;2023-03-23T06:23:28;50.53;;;26.02;;
45764;SDS011;31474;45.332;10.230;2023-03-23T06:25:58;46.60;;;27.10;;
45764;SDS011;31474;45.332;10.230;2023-03-23T06:28:26;46.88;;;28.35;;
45764;SDS011;31474;45.332;10.230;2023-03-23T06:30:52;51.65;;;28.55;;
45764;SDS011;31474;45.332;10.230;2023-03-23T06:33:18;51.42;;;28.25;;
45764;SDS011;31474;45.332;10.230;2023-03-23T06:35:44;52.33;;;28.13;;
45764;SDS011;31474;45.332;10.230;2023-03-23T06:38:10;48.05;;;28.55;;
45764;SDS011;31474;45.332;10.230;2023-03-23T06:40:35;44.90;;;27.88;;
45764;SDS011;31474;45.332;10.230;2023-03-23T06:43:02;49.20;;;29.02;;
45764;SDS011;31474;45.332;10.230;2023-03-23T06:45:28;47.20;;;28.20;;
45764;SDS011;31474;45.332;10.230;2023-03-23T06:47:55;52.03;;;29.50;;
45764;SDS011;31474;45.332;10.230;2023-03-23T06:50:21;46.55;;;27.35;;
45764;SDS011;31474;45.332;10.230;2023-03-23T06:52:47;53.22;;;27.15;;
45764;SDS011;31474;45.332;10.230;2023-03-23T06:55:14;48.25;;;28.50;;
45764;SDS011;31474;45.332;10.230;2023-03-23T06:57:40;56.15;;;28.80;;
45764;SDS011;31474;45.332;10.230;2023-03-23T07:00:07;49.33;;;29.38;;
45764;SDS011;31474;45.332;10.230;2023-03-23T07:02:36;49.63;;;29.20;;
45764;SDS011;31474;45.332;10.230;2023-03-23T07:05:01;46.65;;;28.90;;
45764;SDS011;31474;45.332;10.230;2023-03-23T07:07:28;49.00;;;30.25;;
45764;SDS011;31474;45.332;10.230;2023-03-23T07:09:54;52.05;;;30.65;;
45764;SDS011;31474;45.332;10.230;2023-03-23T07:12:20;56.75;;;29.92;;
45764;SDS011;31474;45.332;10.230;2023-03-23T07:14:47;52.58;;;31.17;;
45764;SDS011;31474;45.332;10.230;2023-03-23T07:17:13;61.78;;;36.25;;
45764;SDS011;31474;45.332;10.230;2023-03-23T07:19:39;53.45;;;34.38;;
45764;SDS011;31474;45.332;10.230;2023-03-23T07:22:06;52.90;;;33.63;;
45764;SDS011;31474;45.332;10.230;2023-03-23T07:24:32;52.35;;;33.67;;
45764;SDS011;31474;45.332;10.230;2023-03-23T07:26:59;54.25;;;33.25;;
45764;SDS011;31474;45.332;10.230;2023-03-23T07:29:25;46.83;;;31.50;;
45764;SDS011;31474;45.332;10.230;2023-03-23T07:31:51;47.03;;;31.58;;
45764;SDS011;31474;45.332;10.230;2023-03-23T07:34:17;45.20;;;29.77;;
45764;SDS011;31474;45.332;10.230;2023-03-23T07:36:44;45.83;;;30.08;;
45764;SDS011;31474;45.332;10.230;2023-03-23T07:39:10;46.75;;;28.67;;
45764;SDS011;31474;45.332;10.230;2023-03-23T07:41:37;45.60;;;28.85;;
45764;SDS011;31474;45.332;10.230;2023-03-23T07:44:03;42.92;;;28.33;;
45764;SDS011;31474;45.332;10.230;2023-03-23T07:46:29;40.63;;;29.15;;
45764;SDS011;31474;45.332;10.230;2023-03-23T07:48:55;42.95;;;28.10;;
45764;SDS011;31474;45.332;10.230;2023-03-23T07:51:21;40.58;;;25.10;;
45764;SDS011;31474;45.332;10.230;2023-03-23T07:53:48;45.47;;;27.77;;
45764;SDS011;31474;45.332;10.230;2023-03-23T07:56:14;40.13;;;26.70;;
45764;SDS011;31474;45.332;10.230;2023-03-23T07:58:43;46.25;;;26.33;;
45764;SDS011;31474;45.332;10.230;2023-03-23T08:01:09;36.35;;;24.08;;
45764;SDS011;31474;45.332;10.230;2023-03-23T08:03:35;41.75;;;25.98;;
45764;SDS011;31474;45.332;10.230;2023-03-23T08:06:02;39.60;;;25.20;;
45764;SDS011;31474;45.332;10.230;2023-03-23T08:08:28;40.65;;;25.67;;
45764;SDS011;31474;45.332;10.230;2023-03-23T08:10:53;40.35;;;25.73;;
45764;SDS011;31474;45.332;10.230;2023-03-23T08:13:19;45.58;;;25.80;;
45764;SDS011;31474;45.332;10.230;2023-03-23T08:15:45;37.83;;;23.75;;
45764;SDS011;31474;45.332;10.230;2023-03-23T08:18:10;35.78;;;20.80;;
45764;SDS011;31474;45.332;10.230;2023-03-23T08:20:36;35.38;;;23.00;;
45764;SDS011;31474;45.332;10.230;2023-03-23T08:23:03;30.48;;;21.50;;
45764;SDS011;31474;45.332;10.230;2023-03-23T08:25:29;32.08;;;21.65;;
45764;SDS011;31474;45.332;10.230;2023-03-23T08:27:59;39.20;;;23.80;;
45764;SDS011;31474;45.332;10.230;2023-03-23T08:30:29;33.70;;;21.70;;
45764;SDS011;31474;45.332;10.230;2023-03-23T08:32:57;34.67;;;19.15;;
45764;SDS011;31474;45.332;10.230;2023-03-23T08:35:23;29.60;;;18.55;;
45764;SDS011;31474;45.332;10.230;2023-03-23T08:37:49;32.58;;;19.17;;
45764;SDS011;31474;45.332;10.230;2023-03-23T08:40:16;28.63;;;17.90;;
45764;SDS011;31474;45.332;10.230;2023-03-23T08:42:44;21.92;;;15.18;;
45764;SDS011;31474;45.332;10.230;2023-03-23T08:45:12;28.58;;;14.10;;
45764;SDS011;31474;45.332;10.230;2023-03-23T08:47:40;20.92;;;13.27;;
45764;SDS011;31474;45.332;10.230;2023-03-23T08:50:07;19.33;;;13.43;;
45764;SDS011;31474;45.332;10.230;2023-03-23T08:52:35;21.70;;;13.85;;
45764;SDS011;31474;45.332;10.230;2023-03-23T08:55:02;19.05;;;12.68;;
45764;SDS011;31474;45.332;10.230;2023-03-23T08:57:28;19.02;;;11.73;;
45764;SDS011;31474;45.332;10.230;2023-03-23T08:59:54;15.50;;;9.27;;
45764;SDS011;31474;45.332;10.230;2023-03-23T09:02:24;11.18;;;8.07;;
45764;SDS011;31474;45.332;10.230;2023-03-23T09:04:51;8.98;;;7.18;;
45764;SDS011;31474;45.332;10.230;2023-03-23T09:07:19;10.35;;;6.93;;
45764;SDS011;31474;45.332;10.230;2023-03-23T09:09:44;13.80;;;6.97;;
45764;SDS011;31474;45.332;10.230;2023-03-23T09:12:10;8.85;;;6.43;;
45764;SDS011;31474;45.332;10.230;2023-03-23T09:14:37;10.70;;;5.60;;
45764;SDS011;31474;45.332;10.230;2023-03-23T09:17:03;7.32;;;5.88;;
45764;SDS011;31474;45.332;10.230;2023-03-23T09:19:29;7.03;;;6.03;;
45764;SDS011;31474;45.332;10.230;2023-03-23T09:21:56;7.55;;;6.18;;
45764;SDS011;31474;45.332;10.230;2023-03-23T09:24:22;10.25;;;6.22;;
45764;SDS011;31474;45.332;10.230;2023-03-23T09:26:47;9.93;;;5.53;;
45764;SDS011;31474;45.332;10.230;2023-03-23T09:29:13;9.90;;;7.55;;
45764;SDS011;31474;45.332;10.230;2023-03-23T09:31:39;14.38;;;6.07;;
45764;SDS011;31474;45.332;10.230;2023-03-23T09:34:06;8.25;;;5.55;;
45764;SDS011;31474;45.332;10.230;2023-03-23T09:36:35;15.35;;;5.75;;
45764;SDS011;31474;45.332;10.230;2023-03-23T09:39:01;7.45;;;4.70;;
45764;SDS011;31474;45.332;10.230;2023-03-23T09:41:48;7.95;;;5.20;;
45764;SDS011;31474;45.332;10.230;2023-03-23T09:44:57;10.27;;;5.85;;
45764;SDS011;31474;45.332;10.230;2023-03-23T09:47:35;7.00;;;4.95;;
45764;SDS011;31474;45.332;10.230;2023-03-23T09:50:15;11.90;;;5.78;;
45764;SDS011;31474;45.332;10.230;2023-03-23T09:55:18;7.00;;;5.93;;
45764;SDS011;31474;45.332;10.230;2023-03-23T09:57:55;6.85;;;5.53;;
45764;SDS011;31474;45.332;10.230;2023-03-23T10:00:36;6.53;;;5.25;;
45764;SDS011;31474;45.332;10.230;2023-03-23T10:03:14;6.72;;;5.05;;
45764;SDS011;31474;45.332;10.230;2023-03-23T10:05:44;11.43;;;6.72;;
45764;SDS011;31474;45.332;10.230;2023-03-23T10:08:19;10.32;;;5.60;;
45764;SDS011;31474;45.332;10.230;2023-03-23T10:16:18;8.50;;;5.22;;
45764;SDS011;31474;45.332;10.230;2023-03-23T10:18:49;4.82;;;4.30;;
45764;SDS011;31474;45.332;10.230;2023-03-23T10:21:20;5.03;;;4.25;;
45764;SDS011;31474;45.332;10.230;2023-03-23T10:23:52;7.10;;;4.50;;
45764;SDS011;31474;45.332;10.230;2023-03-23T10:31:39;9.00;;;4.53;;
45764;SDS011;31474;45.332;10.230;2023-03-23T10:39:55;5.88;;;4.15;;
45764;SDS011;31474;45.332;10.230;2023-03-23T10:42:24;8.57;;;4.97;;
45764;SDS011;31474;45.332;10.230;2023-03-23T10:44:53;6.20;;;5.15;;
45764;SDS011;31474;45.332;10.230;2023-03-23T10:47:19;12.45;;;5.03;;
45764;SDS011;31474;45.332;10.230;2023-03-23T10:49:53;7.63;;;5.20;;
45764;SDS011;31474;45.332;10.230;2023-03-23T10:52:33;5.90;;;5.30;;
45764;SDS011;31474;45.332;10.230;2023-03-23T10:55:13;8.02;;;5.70;;
45764;SDS011;31474;45.332;10.230;2023-03-23T10:57:42;8.93;;;5.90;;
45764;SDS011;31474;45.332;10.230;2023-03-23T11:08:21;5.70;;;4.80;;
45764;SDS011;31474;45.332;10.230;2023-03-23T11:13:45;8.18;;;5.30;;
45764;SDS011;31474;45.332;10.230;2023-03-23T11:16:22;7.43;;;5.30;;
45764;SDS011;31474;45.332;10.230;2023-03-23T11:18:49;7.47;;;5.78;;
45764;SDS011;31474;45.332;10.230;2023-03-23T11:21:14;7.28;;;6.25;;
45764;SDS011;31474;45.332;10.230;2023-03-23T11:23:42;8.10;;;5.55;;
45764;SDS011;31474;45.332;10.230;2023-03-23T11:31:35;9.82;;;5.68;;
45764;SDS011;31474;45.332;10.230;2023-03-23T11:34:08;8.73;;;5.03;;
45764;SDS011;31474;45.332;10.230;2023-03-23T11:36:41;9.32;;;4.70;;
45764;SDS011;31474;45.332;10.230;2023-03-23T11:41:57;10.77;;;5.95;;
45764;SDS011;31474;45.332;10.230;2023-03-23T11:44:31;10.30;;;6.25;;
45764;SDS011;31474;45.332;10.230;2023-03-23T11:47:07;12.63;;;6.35;;
45764;SDS011;31474;45.332;10.230;2023-03-23T11:57:48;9.95;;;6.40;;
45764;SDS011;31474;45.332;10.230;2023-03-23T12:00:20;12.00;;;6.43;;
45764;SDS011;31474;45.332;10.230;2023-03-23T12:06:11;9.60;;;6.88;;
45764;SDS011;31474;45.332;10.230;2023-03-23T12:11:23;9.85;;;6.32;;
45764;SDS011;31474;45.332;10.230;2023-03-23T12:22:04;12.80;;;7.07;;
45764;SDS011;31474;45.332;10.230;2023-03-23T12:33:58;13.68;;;7.38;;
45764;SDS011;31474;45.332;10.230;2023-03-23T12:39:08;10.00;;;7.38;;
45764;SDS011;31474;45.332;10.230;2023-03-23T12:44:46;14.65;;;7.53;;
45764;SDS011;31474;45.332;10.230;2023-03-23T12:49:57;19.75;;;8.68;;
45764;SDS011;31474;45.332;10.230;2023-03-23T12:52:50;13.60;;;7.35;;
45764;SDS011;31474;45.332;10.230;2023-03-23T12:55:46;15.50;;;8.35;;
45764;SDS011;31474;45.332;10.230;2023-03-23T12:58:21;20.05;;;10.95;;
45764;SDS011;31474;45.332;10.230;2023-03-23T13:06:08;11.80;;;7.07;;
45764;SDS011;31474;45.332;10.230;2023-03-23T13:11:28;17.98;;;7.28;;
45764;SDS011;31474;45.332;10.230;2023-03-23T13:16:58;11.52;;;6.35;;
45764;SDS011;31474;45.332;10.230;2023-03-23T13:25:06;12.85;;;6.32;;
45764;SDS011;31474;45.332;10.230;2023-03-23T13:27:38;11.30;;;6.60;;
45764;SDS011;31474;45.332;10.230;2023-03-23T13:30:04;10.55;;;7.00;;
45764;SDS011;31474;45.332;10.230;2023-03-23T13:32:42;10.63;;;6.68;;
45764;SDS011;31474;45.332;10.230;2023-03-23T13:35:13;20.13;;;7.63;;
45764;SDS011;31474;45.332;10.230;2023-03-23T13:37:47;15.10;;;7.18;;
45764;SDS011;31474;45.332;10.230;2023-03-23T13:40:26;16.63;;;8.10;;
45764;SDS011;31474;45.332;10.230;2023-03-23T13:42:55;11.55;;;6.68;;
45764;SDS011;31474;45.332;10.230;2023-03-23T13:53:15;8.68;;;6.03;;
45764;SDS011;31474;45.332;10.230;2023-03-23T13:56:13;9.45;;;6.00;;
45764;SDS011;31474;45.332;10.230;2023-03-23T14:01:38;11.23;;;6.28;;
45764;SDS011;31474;45.332;10.230;2023-03-23T14:04:09;8.23;;;5.68;;
45764;SDS011;31474;45.332;10.230;2023-03-23T14:06:39;10.65;;;5.82;;
45764;SDS011;31474;45.332;10.230;2023-03-23T14:11:54;7.23;;;4.80;;
45764;SDS011;31474;45.332;10.230;2023-03-23T14:14:32;9.77;;;6.22;;
45764;SDS011;31474;45.332;10.230;2023-03-23T14:17:13;10.20;;;5.55;;
45764;SDS011;31474;45.332;10.230;2023-03-23T14:19:48;8.27;;;5.53;;
45764;SDS011;31474;45.332;10.230;2023-03-23T14:22:22;8.88;;;5.85;;
45764;SDS011;31474;45.332;10.230;2023-03-23T14:24:53;12.68;;;5.70;;
45764;SDS011;31474;45.332;10.230;2023-03-23T14:27:35;11.13;;;6.65;;
45764;SDS011;31474;45.332;10.230;2023-03-23T14:30:20;13.68;;;7.45;;
45764;SDS011;31474;45.332;10.230;2023-03-23T14:32:50;11.00;;;7.70;;
45764;SDS011;31474;45.332;10.230;2023-03-23T14:37:56;11.95;;;7.50;;
45764;SDS011;31474;45.332;10.230;2023-03-23T14:40:22;12.55;;;6.90;;
45764;SDS011;31474;45.332;10.230;2023-03-23T14:42:52;11.85;;;6.90;;
45764;SDS011;31474;45.332;10.230;2023-03-23T14:45:20;11.65;;;6.57;;
45764;SDS011;31474;45.332;10.230;2023-03-23T14:48:00;14.35;;;7.03;;
45764;SDS011;31474;45.332;10.230;2023-03-23T14:50:28;13.98;;;8.30;;
45764;SDS011;31474;45.332;10.230;2023-03-23T14:53:02;10.63;;;6.32;;
45764;SDS011;31474;45.332;10.230;2023-03-23T14:55:35;8.23;;;5.20;;
45764;SDS011;31474;45.332;10.230;2023-03-23T14:58:07;12.25;;;5.55;;
45764;SDS011;31474;45.332;10.230;2023-03-23T15:00:35;11.55;;;6.40;;
45764;SDS011;31474;45.332;10.230;2023-03-23T15:03:05;9.05;;;6.00;;
45764;SDS011;31474;45.332;10.230;2023-03-23T15:05:39;12.23;;;6.13;;
45764;SDS011;31474;45.332;10.230;2023-03-23T15:08:30;13.73;;;5.70;;
45764;SDS011;31474;45.332;10.230;2023-03-23T15:11:05;8.43;;;7.03;;
45764;SDS011;31474;45.332;10.230;2023-03-23T15:13:44;8.80;;;6.28;;
45764;SDS011;31474;45.332;10.230;2023-03-23T15:16:13;10.25;;;6.55;;
45764;SDS011;31474;45.332;10.230;2023-03-23T15:19:03;9.98;;;6.95;;
45764;SDS011;31474;45.332;10.230;2023-03-23T15:23:59;14.45;;;6.30;;
45764;SDS011;31474;45.332;10.230;2023-03-23T15:26:30;9.65;;;6.05;;
45764;SDS011;31474;45.332;10.230;2023-03-23T15:31:32;13.23;;;7.45;;
45764;SDS011;31474;45.332;10.230;2023-03-23T15:33:59;14.57;;;8.43;;
45764;SDS011;31474;45.332;10.230;2023-03-23T15:36:30;14.90;;;8.32;;
45764;SDS011;31474;45.332;10.230;2023-03-23T15:38:57;24.90;;;12.85;;
45764;SDS011;31474;45.332;10.230;2023-03-23T15:41:24;21.80;;;13.07;;
45764;SDS011;31474;45.332;10.230;2023-03-23T15:43:56;30.23;;;15.40;;
45764;SDS011;31474;45.332;10.230;2023-03-23T15:46:24;43.22;;;23.08;;
45764;SDS011;31474;45.332;10.230;2023-03-23T15:51:24;10.75;;;7.55;;
45764;SDS011;31474;45.332;10.230;2023-03-23T15:53:51;16.30;;;9.32;;
45764;SDS011;31474;45.332;10.230;2023-03-23T15:56:18;12.32;;;8.68;;
45764;SDS011;31474;45.332;10.230;2023-03-23T15:58:44;9.13;;;6.85;;
45764;SDS011;31474;45.332;10.230;2023-03-23T16:01:11;10.18;;;7.45;;
45764;SDS011;31474;45.332;10.230;2023-03-23T16:06:26;9.23;;;6.82;;
45764;SDS011;31474;45.332;10.230;2023-03-23T16:08:54;17.55;;;7.47;;
45764;SDS011;31474;45.332;10.230;2023-03-23T16:11:20;16.27;;;6.20;;
45764;SDS011;31474;45.332;10.230;2023-03-23T16:13:47;12.20;;;7.55;;
45764;SDS011;31474;45.332;10.230;2023-03-23T16:16:15;13.35;;;6.60;;
45764;SDS011;31474;45.332;10.230;2023-03-23T16:18:44;10.13;;;6.90;;
45764;SDS011;31474;45.332;10.230;2023-03-23T16:21:10;11.10;;;6.55;;
45764;SDS011;31474;45.332;10.230;2023-03-23T16:23:36;13.07;;;6.65;;
45764;SDS011;31474;45.332;10.230;2023-03-23T16:26:02;12.05;;;7.25;;
45764;SDS011;31474;45.332;10.230;2023-03-23T16:28:28;10.52;;;6.60;;
45764;SDS011;31474;45.332;10.230;2023-03-23T16:30:54;14.63;;;7.07;;
45764;SDS011;31474;45.332;10.230;2023-03-23T16:33:20;10.20;;;6.43;;
45764;SDS011;31474;45.332;10.230;2023-03-23T16:35:46;10.63;;;6.75;;
45764;SDS011;31474;45.332;10.230;2023-03-23T16:38:12;9.80;;;6.60;;
45764;SDS011;31474;45.332;10.230;2023-03-23T16:40:40;13.77;;;6.70;;
45764;SDS011;31474;45.332;10.230;2023-03-23T16:43:10;15.30;;;6.05;;
45764;SDS011;31474;45.332;10.230;2023-03-23T16:45:38;15.07;;;6.93;;
45764;SDS011;31474;45.332;10.230;2023-03-23T16:48:06;14.82;;;7.32;;
45764;SDS011;31474;45.332;10.230;2023-03-23T16:50:32;13.10;;;7.18;;
45764;SDS011;31474;45.332;10.230;2023-03-23T16:52:59;8.43;;;5.55;;
45764;SDS011;31474;45.332;10.230;2023-03-23T16:55:24;12.07;;;7.05;;
45764;SDS011;31474;45.332;10.230;2023-03-23T16:57:51;14.00;;;6.63;;
45764;SDS011;31474;45.332;10.230;2023-03-23T17:00:17;14.63;;;6.25;;
45764;SDS011;31474;45.332;10.230;2023-03-23T17:02:47;15.32;;;8.65;;
45764;SDS011;31474;45.332;10.230;2023-03-23T17:05:16;16.27;;;7.22;;
45764;SDS011;31474;45.332;10.230;2023-03-23T17:07:43;12.35;;;6.47;;
45764;SDS011;31474;45.332;10.230;2023-03-23T17:10:10;13.95;;;7.68;;
45764;SDS011;31474;45.332;10.230;2023-03-23T17:12:37;16.65;;;8.48;;
45764;SDS011;31474;45.332;10.230;2023-03-23T17:15:04;16.88;;;7.97;;
45764;SDS011;31474;45.332;10.230;2023-03-23T17:17:31;20.30;;;9.63;;
45764;SDS011;31474;45.332;10.230;2023-03-23T17:19:57;15.15;;;7.80;;
45764;SDS011;31474;45.332;10.230;2023-03-23T17:22:23;15.35;;;7.72;;
45764;SDS011;31474;45.332;10.230;2023-03-23T17:24:49;25.17;;;8.10;;
45764;SDS011;31474;45.332;10.230;2023-03-23T17:27:16;19.70;;;8.63;;
45764;SDS011;31474;45.332;10.230;2023-03-23T17:29:43;28.23;;;9.40;;
45764;SDS011;31474;45.332;10.230;2023-03-23T17:32:09;28.52;;;9.15;;
45764;SDS011;31474;45.332;10.230;2023-03-23T17:34:35;15.25;;;9.23;;
45764;SDS011;31474;45.332;10.230;2023-03-23T17:37:01;20.52;;;7.70;;
45764;SDS011;31474;45.332;10.230;2023-03-23T17:39:27;15.15;;;7.97;;
45764;SDS011;31474;45.332;10.230;2023-03-23T17:41:53;23.30;;;10.75;;
45764;SDS011;31474;45.332;10.230;2023-03-23T17:44:19;23.92;;;11.85;;
45764;SDS011;31474;45.332;10.230;2023-03-23T17:46:45;24.30;;;10.73;;
45764;SDS011;31474;45.332;10.230;2023-03-23T17:49:11;27.70;;;10.23;;
45764;SDS011;31474;45.332;10.230;2023-03-23T17:51:36;26.15;;;10.63;;
45764;SDS011;31474;45.332;10.230;2023-03-23T17:54:02;30.48;;;9.98;;
45764;SDS011;31474;45.332;10.230;2023-03-23T17:56:27;27.23;;;10.73;;
45764;SDS011;31474;45.332;10.230;2023-03-23T17:58:53;21.02;;;10.50;;
45764;SDS011;31474;45.332;10.230;2023-03-23T18:01:19;17.55;;;10.60;;
45764;SDS011;31474;45.332;10.230;2023-03-23T18:03:44;20.33;;;10.70;;
45764;SDS011;31474;45.332;10.230;2023-03-23T18:06:10;21.60;;;10.00;;
45764;SDS011;31474;45.332;10.230;2023-03-23T18:08:37;16.40;;;9.88;;
45764;SDS011;31474;45.332;10.230;2023-03-23T18:11:02;18.85;;;10.05;;
45764;SDS011;31474;45.332;10.230;2023-03-23T18:13:29;21.08;;;9.70;;
45764;SDS011;31474;45.332;10.230;2023-03-23T18:15:56;18.05;;;9.77;;
45764;SDS011;31474;45.332;10.230;2023-03-23T18:18:23;23.20;;;11.10;;
45764;SDS011;31474;45.332;10.230;2023-03-23T18:20:53;26.90;;;9.93;;
45764;SDS011;31474;45.332;10.230;2023-03-23T18:23:23;18.67;;;9.95;;
45764;SDS011;31474;45.332;10.230;2023-03-23T18:25:50;18.85;;;9.70;;
45764;SDS011;31474;45.332;10.230;2023-03-23T18:28:17;19.67;;;10.10;;
45764;SDS011;31474;45.332;10.230;2023-03-23T18:30:46;22.33;;;10.85;;
45764;SDS011;31474;45.332;10.230;2023-03-23T18:33:17;28.10;;;11.15;;
45764;SDS011;31474;45.332;10.230;2023-03-23T18:35:43;19.98;;;12.02;;
45764;SDS011;31474;45.332;10.230;2023-03-23T18:38:09;20.50;;;12.27;;
45764;SDS011;31474;45.332;10.230;2023-03-23T18:40:41;21.88;;;12.27;;
45764;SDS011;31474;45.332;10.230;2023-03-23T18:43:10;22.75;;;12.90;;
45764;SDS011;31474;45.332;10.230;2023-03-23T18:45:36;29.75;;;13.57;;
45764;SDS011;31474;45.332;10.230;2023-03-23T18:48:03;20.63;;;13.55;;
45764;SDS011;31474;45.332;10.230;2023-03-23T18:50:33;24.83;;;14.05;;
45764;SDS011;31474;45.332;10.230;2023-03-23T18:52:59;26.65;;;12.80;;
45764;SDS011;31474;45.332;10.230;2023-03-23T18:55:24;33.85;;;14.50;;
45764;SDS011;31474;45.332;10.230;2023-03-23T18:57:50;23.02;;;12.45;;
45764;SDS011;31474;45.332;10.230;2023-03-23T19:00:16;27.98;;;13.88;;
45764;SDS011;31474;45.332;10.230;2023-03-23T19:02:42;20.77;;;12.00;;
45764;SDS011;31474;45.332;10.230;2023-03-23T19:05:08;26.65;;;14.63;;
45764;SDS011;31474;45.332;10.230;2023-03-23T19:07:34;23.05;;;13.82;;
45764;SDS011;31474;45.332;10.230;2023-03-23T19:10:00;21.98;;;13.48;;
45764;SDS011;31474;45.332;10.230;2023-03-23T19:12:25;24.60;;;13.60;;
45764;SDS011;31474;45.332;10.230;2023-03-23T19:14:51;26.42;;;12.75;;
45764;SDS011;31474;45.332;10.230;2023-03-23T19:17:17;21.85;;;12.27;;
45764;SDS011;31474;45.332;10.230;2023-03-23T19:19:43;27.55;;;12.95;;
45764;SDS011;31474;45.332;10.230;2023-03-23T19:22:10;23.48;;;12.93;;
45764;SDS011;31474;45.332;10.230;2023-03-23T19:24:36;26.55;;;14.00;;
45764;SDS011;31474;45.332;10.230;2023-03-23T19:27:02;25.83;;;12.93;;
45764;SDS011;31474;45.332;10.230;2023-03-23T19:29:28;28.80;;;12.73;;
45764;SDS011;31474;45.332;10.230;2023-03-23T19:31:54;27.08;;;14.30;;
45764;SDS011;31474;45.332;10.230;2023-03-23T19:34:20;30.38;;;12.98;;
45764;SDS011;31474;45.332;10.230;2023-03-23T19:36:47;25.48;;;12.70;;
45764;SDS011;31474;45.332;10.230;2023-03-23T19:39:14;24.33;;;12.02;;
45764;SDS011;31474;45.332;10.230;2023-03-23T19:41:40;22.95;;;13.45;;
45764;SDS011;31474;45.332;10.230;2023-03-23T19:44:08;31.25;;;14.20;;
45764;SDS011;31474;45.332;10.230;2023-03-23T19:46:34;23.92;;;13.88;;
45764;SDS011;31474;45.332;10.230;2023-03-23T19:48:59;25.77;;;14.10;;
45764;SDS011;31474;45.332;10.230;2023-03-23T19:51:25;23.17;;;13.10;;
45764;SDS011;31474;45.332;10.230;2023-03-23T19:53:53;19.65;;;12.48;;
45764;SDS011;31474;45.332;10.230;2023-03-23T19:56:20;19.40;;;11.38;;
45764;SDS011;31474;45.332;10.230;2023-03-23T19:58:46;17.05;;;11.63;;
45764;SDS011;31474;45.332;10.230;2023-03-23T20:01:13;16.92;;;9.65;;
45764;SDS011;31474;45.332;10.230;2023-03-23T20:03:39;19.42;;;11.38;;
45764;SDS011;31474;45.332;10.230;2023-03-23T20:06:06;17.35;;;10.23;;
45764;SDS011;31474;45.332;10.230;2023-03-23T20:08:36;17.65;;;10.27;;
45764;SDS011;31474;45.332;10.230;2023-03-23T20:11:04;18.92;;;11.20;;
45764;SDS011;31474;45.332;10.230;2023-03-23T20:13:32;15.02;;;10.73;;
45764;SDS011;31474;45.332;10.230;2023-03-23T20:15:58;14.02;;;10.00;;
45764;SDS011;31474;45.332;10.230;2023-03-23T20:18:24;14.38;;;9.23;;
45764;SDS011;31474;45.332;10.230;2023-03-23T20:20:50;13.00;;;9.07;;
45764;SDS011;31474;45.332;10.230;2023-03-23T20:23:23;11.82;;;8.15;;
45764;SDS011;31474;45.332;10.230;2023-03-23T20:25:49;18.95;;;8.55;;
45764;SDS011;31474;45.332;10.230;2023-03-23T20:28:15;14.30;;;8.40;;
45764;SDS011;31474;45.332;10.230;2023-03-23T20:30:40;11.52;;;8.10;;
45764;SDS011;31474;45.332;10.230;2023-03-23T20:33:06;11.30;;;8.18;;
45764;SDS011;31474;45.332;10.230;2023-03-23T20:35:33;10.80;;;7.30;;
45764;SDS011;31474;45.332;10.230;2023-03-23T20:37:58;13.70;;;7.70;;
45764;SDS011;31474;45.332;10.230;2023-03-23T20:40:24;13.18;;;7.88;;